sensor_id;sensor_type;location;lat;lon;timestamp;P1;durP1;ratioP1;P2;durP2;ratioP2
60919;SDS011;59039;52.108;19.942;2024-01-15T00:02:12;39.50;;;15.80;;
60919;SDS011;59039;52.108;19.942;2024-01-15T00:04:37;36.40;;;15.00;;
60919;SDS011;59039;52.108;19.942;2024-01-15T00:07:03;30.10;;;16.50;;
60919;SDS011;59039;52.108;19.942;2024-01-15T00:09:28;35.70;;;16.70;;
60919;SDS011;59039;52.108;19.942;2024-01-15T00:11:53;37.90;;;16.50;;
60919;SDS011;59039;52.108;19.942;2024-01-15T00:14:19;33.90;;;16.70;;
60919;SDS011;59039;52.108;19.942;2024-01-15T00:16:44;33.20;;;16.60;;
60919;SDS011;59039;52.108;19.942;2024-01-15T00:19:09;36.30;;;17.40;;
60919;SDS011;59039;52.108;19.942;2024-01-15T00:21:35;31.30;;;14.90;;
60919;SDS011;59039;52.108;19.942;2024-01-15T00:24:00;35.30;;;16.40;;
60919;SDS011;59039;52.108;19.942;2024-01-15T00:26:25;34.00;;;17.10;;
60919;SDS011;59039;52.108;19.942;2024-01-15T00:28:51;40.60;;;18.20;;
60919;SDS011;59039;52.108;19.942;2024-01-15T00:31:16;30.90;;;15.70;;
60919;SDS011;59039;52.108;19.942;2024-01-15T00:33:41;41.10;;;17.20;;
60919;SDS011;59039;52.108;19.942;2024-01-15T00:36:07;40.20;;;17.20;;
60919;SDS011;59039;52.108;19.942;2024-01-15T00:38:32;40.50;;;17.50;;
60919;SDS011;59039;52.108;19.942;2024-01-15T00:40:57;36.20;;;16.90;;
60919;SDS011;59039;52.108;19.942;2024-01-15T00:43:23;35.70;;;17.00;;
60919;SDS011;59039;52.108;19.942;2024-01-15T00:45:48;37.70;;;17.30;;
60919;SDS011;59039;52.108;19.942;2024-01-15T00:48:13;37.40;;;17.30;;
60919;SDS011;59039;52.108;19.942;2024-01-15T00:50:38;38.60;;;16.50;;
60919;SDS011;59039;52.108;19.942;2024-01-15T00:53:04;35.30;;;15.90;;
60919;SDS011;59039;52.108;19.942;2024-01-15T00:55:29;30.10;;;14.60;;
60919;SDS011;59039;52.108;19.942;2024-01-15T00:57:54;32.10;;;14.30;;
60919;SDS011;59039;52.108;19.942;2024-01-15T01:00:19;30.30;;;15.40;;
60919;SDS011;59039;52.108;19.942;2024-01-15T01:02:45;31.10;;;14.40;;
60919;SDS011;59039;52.108;19.942;2024-01-15T01:05:10;29.40;;;15.30;;
60919;SDS011;59039;52.108;19.942;2024-01-15T01:07:35;33.40;;;16.30;;
60919;SDS011;59039;52.108;19.942;2024-01-15T01:10:00;33.10;;;15.40;;
60919;SDS011;59039;52.108;19.942;2024-01-15T01:12:25;30.30;;;15.40;;
60919;SDS011;59039;52.108;19.942;2024-01-15T01:14:51;30.40;;;15.50;;
60919;SDS011;59039;52.108;19.942;2024-01-15T01:17:16;34.70;;;16.00;;
60919;SDS011;59039;52.108;19.942;2024-01-15T01:19:41;38.90;;;19.40;;
60919;SDS011;59039;52.108;19.942;2024-01-15T01:22:06;37.90;;;17.30;;
60919;SDS011;59039;52.108;19.942;2024-01-15T01:24:32;33.40;;;15.60;;
60919;SDS011;59039;52.108;19.942;2024-01-15T01:26:58;35.50;;;15.90;;
60919;SDS011;59039;52.108;19.942;2024-01-15T01:29:23;32.60;;;16.30;;
60919;SDS011;59039;52.108;19.942;2024-01-15T01:31:48;35.80;;;17.60;;
60919;SDS011;59039;52.108;19.942;2024-01-15T01:34:14;36.40;;;17.40;;
60919;SDS011;59039;52.108;19.942;2024-01-15T01:36:41;38.40;;;17.10;;
60919;SDS011;59039;52.108;19.942;2024-01-15T01:39:09;35.30;;;17.70;;
60919;SDS011;59039;52.108;19.942;2024-01-15T01:41:34;39.10;;;17.90;;
60919;SDS011;59039;52.108;19.942;2024-01-15T01:44:00;35.30;;;16.60;;
60919;SDS011;59039;52.108;19.942;2024-01-15T01:46:26;34.60;;;17.30;;
60919;SDS011;59039;52.108;19.942;2024-01-15T01:48:52;37.00;;;17.70;;
60919;SDS011;59039;52.108;19.942;2024-01-15T01:51:18;36.60;;;17.30;;
60919;SDS011;59039;52.108;19.942;2024-01-15T01:53:45;35.80;;;17.10;;
60919;SDS011;59039;52.108;19.942;2024-01-15T01:56:11;31.50;;;16.90;;
60919;SDS011;59039;52.108;19.942;2024-01-15T01:58:37;38.50;;;17.90;;
60919;SDS011;59039;52.108;19.942;2024-01-15T02:01:03;36.40;;;17.20;;
60919;SDS011;59039;52.108;19.942;2024-01-15T02:03:29;36.40;;;17.60;;
60919;SDS011;59039;52.108;19.942;2024-01-15T02:05:55;41.30;;;19.20;;
60919;SDS011;59039;52.108;19.942;2024-01-15T02:08:21;36.00;;;17.00;;
60919;SDS011;59039;52.108;19.942;2024-01-15T02:10:47;35.90;;;17.00;;
60919;SDS011;59039;52.108;19.942;2024-01-15T02:13:12;38.80;;;17.40;;
60919;SDS011;59039;52.108;19.942;2024-01-15T02:15:37;37.00;;;18.40;;
60919;SDS011;59039;52.108;19.942;2024-01-15T02:18:03;40.60;;;17.90;;
60919;SDS011;59039;52.108;19.942;2024-01-15T02:20:30;42.00;;;19.10;;
60919;SDS011;59039;52.108;19.942;2024-01-15T02:23:09;38.40;;;17.60;;
60919;SDS011;59039;52.108;19.942;2024-01-15T02:25:35;37.40;;;18.00;;
60919;SDS011;59039;52.108;19.942;2024-01-15T02:28:05;37.60;;;18.00;;
60919;SDS011;59039;52.108;19.942;2024-01-15T02:30:31;36.10;;;16.80;;
60919;SDS011;59039;52.108;19.942;2024-01-15T02:32:56;40.40;;;18.20;;
60919;SDS011;59039;52.108;19.942;2024-01-15T02:35:21;42.50;;;17.30;;
60919;SDS011;59039;52.108;19.942;2024-01-15T02:37:47;38.70;;;17.40;;
60919;SDS011;59039;52.108;19.942;2024-01-15T02:40:12;40.60;;;18.10;;
60919;SDS011;59039;52.108;19.942;2024-01-15T02:42:37;37.90;;;18.40;;
60919;SDS011;59039;52.108;19.942;2024-01-15T02:45:03;44.10;;;18.60;;
60919;SDS011;59039;52.108;19.942;2024-01-15T02:47:28;38.40;;;18.30;;
60919;SDS011;59039;52.108;19.942;2024-01-15T02:49:54;37.00;;;17.10;;
60919;SDS011;59039;52.108;19.942;2024-01-15T02:52:19;36.00;;;17.30;;
60919;SDS011;59039;52.108;19.942;2024-01-15T02:54:44;39.40;;;17.90;;
60919;SDS011;59039;52.108;19.942;2024-01-15T02:57:09;48.10;;;20.00;;
60919;SDS011;59039;52.108;19.942;2024-01-15T02:59:34;42.20;;;19.60;;
60919;SDS011;59039;52.108;19.942;2024-01-15T03:02:00;43.70;;;18.90;;
60919;SDS011;59039;52.108;19.942;2024-01-15T03:04:25;42.90;;;18.80;;
60919;SDS011;59039;52.108;19.942;2024-01-15T03:06:50;40.00;;;18.00;;
60919;SDS011;59039;52.108;19.942;2024-01-15T03:09:15;39.10;;;17.20;;
60919;SDS011;59039;52.108;19.942;2024-01-15T03:11:40;44.60;;;19.10;;
60919;SDS011;59039;52.108;19.942;2024-01-15T03:14:06;39.20;;;18.40;;
60919;SDS011;59039;52.108;19.942;2024-01-15T03:16:31;43.70;;;17.10;;
60919;SDS011;59039;52.108;19.942;2024-01-15T03:18:56;40.10;;;17.80;;
60919;SDS011;59039;52.108;19.942;2024-01-15T03:21:21;42.70;;;18.50;;
60919;SDS011;59039;52.108;19.942;2024-01-15T03:23:47;40.50;;;16.60;;
60919;SDS011;59039;52.108;19.942;2024-01-15T03:26:12;41.50;;;18.20;;
60919;SDS011;59039;52.108;19.942;2024-01-15T03:28:37;37.30;;;16.80;;
60919;SDS011;59039;52.108;19.942;2024-01-15T03:31:02;38.80;;;17.00;;
60919;SDS011;59039;52.108;19.942;2024-01-15T03:33:28;34.90;;;16.70;;
60919;SDS011;59039;52.108;19.942;2024-01-15T03:35:53;31.30;;;15.50;;
60919;SDS011;59039;52.108;19.942;2024-01-15T03:38:18;31.40;;;15.40;;
60919;SDS011;59039;52.108;19.942;2024-01-15T03:40:43;32.00;;;16.20;;
60919;SDS011;59039;52.108;19.942;2024-01-15T03:43:09;31.70;;;15.80;;
60919;SDS011;59039;52.108;19.942;2024-01-15T03:45:34;34.70;;;15.60;;
60919;SDS011;59039;52.108;19.942;2024-01-15T03:47:59;34.80;;;15.20;;
60919;SDS011;59039;52.108;19.942;2024-01-15T03:50:24;35.40;;;16.50;;
60919;SDS011;59039;52.108;19.942;2024-01-15T03:52:49;36.10;;;17.40;;
60919;SDS011;59039;52.108;19.942;2024-01-15T03:55:15;37.00;;;16.00;;
60919;SDS011;59039;52.108;19.942;2024-01-15T03:57:40;35.40;;;16.50;;
60919;SDS011;59039;52.108;19.942;2024-01-15T04:00:06;37.30;;;17.30;;
60919;SDS011;59039;52.108;19.942;2024-01-15T04:02:32;36.70;;;16.90;;
60919;SDS011;59039;52.108;19.942;2024-01-15T04:04:57;36.50;;;16.50;;
60919;SDS011;59039;52.108;19.942;2024-01-15T04:07:22;36.70;;;17.20;;
60919;SDS011;59039;52.108;19.942;2024-01-15T04:09:48;33.30;;;15.60;;
60919;SDS011;59039;52.108;19.942;2024-01-15T04:12:13;30.10;;;15.60;;
60919;SDS011;59039;52.108;19.942;2024-01-15T04:14:38;32.30;;;16.20;;
60919;SDS011;59039;52.108;19.942;2024-01-15T04:17:03;27.30;;;13.50;;
60919;SDS011;59039;52.108;19.942;2024-01-15T04:19:29;34.10;;;15.60;;
60919;SDS011;59039;52.108;19.942;2024-01-15T04:21:54;32.60;;;16.40;;
60919;SDS011;59039;52.108;19.942;2024-01-15T04:24:19;30.40;;;14.40;;
60919;SDS011;59039;52.108;19.942;2024-01-15T04:26:45;30.90;;;15.30;;
60919;SDS011;59039;52.108;19.942;2024-01-15T04:29:10;29.30;;;13.80;;
60919;SDS011;59039;52.108;19.942;2024-01-15T04:31:35;27.30;;;14.40;;
60919;SDS011;59039;52.108;19.942;2024-01-15T04:34:01;29.30;;;14.80;;
60919;SDS011;59039;52.108;19.942;2024-01-15T04:36:26;31.30;;;14.40;;
60919;SDS011;59039;52.108;19.942;2024-01-15T04:38:51;35.20;;;16.40;;
60919;SDS011;59039;52.108;19.942;2024-01-15T04:41:16;31.90;;;15.80;;
60919;SDS011;59039;52.108;19.942;2024-01-15T04:43:41;31.50;;;16.40;;
60919;SDS011;59039;52.108;19.942;2024-01-15T04:46:07;30.20;;;16.10;;
60919;SDS011;59039;52.108;19.942;2024-01-15T04:48:33;28.60;;;15.00;;
60919;SDS011;59039;52.108;19.942;2024-01-15T04:50:58;31.30;;;15.10;;
60919;SDS011;59039;52.108;19.942;2024-01-15T04:53:23;30.00;;;14.30;;
60919;SDS011;59039;52.108;19.942;2024-01-15T04:55:48;27.70;;;14.40;;
60919;SDS011;59039;52.108;19.942;2024-01-15T04:58:13;28.00;;;14.10;;
60919;SDS011;59039;52.108;19.942;2024-01-15T05:00:39;32.60;;;15.90;;
60919;SDS011;59039;52.108;19.942;2024-01-15T05:03:04;36.70;;;17.90;;
60919;SDS011;59039;52.108;19.942;2024-01-15T05:05:29;32.70;;;17.30;;
60919;SDS011;59039;52.108;19.942;2024-01-15T05:07:55;28.90;;;16.10;;
60919;SDS011;59039;52.108;19.942;2024-01-15T05:10:20;41.30;;;18.00;;
60919;SDS011;59039;52.108;19.942;2024-01-15T05:12:45;34.90;;;17.30;;
60919;SDS011;59039;52.108;19.942;2024-01-15T05:15:10;34.80;;;16.60;;
60919;SDS011;59039;52.108;19.942;2024-01-15T05:17:35;31.40;;;16.40;;
60919;SDS011;59039;52.108;19.942;2024-01-15T05:20:01;36.40;;;16.50;;
60919;SDS011;59039;52.108;19.942;2024-01-15T05:22:26;32.10;;;16.70;;
60919;SDS011;59039;52.108;19.942;2024-01-15T05:24:51;34.40;;;17.10;;
60919;SDS011;59039;52.108;19.942;2024-01-15T05:27:16;28.60;;;14.60;;
60919;SDS011;59039;52.108;19.942;2024-01-15T05:29:41;32.40;;;16.80;;
60919;SDS011;59039;52.108;19.942;2024-01-15T05:32:07;39.60;;;17.80;;
60919;SDS011;59039;52.108;19.942;2024-01-15T05:34:32;34.10;;;16.90;;
60919;SDS011;59039;52.108;19.942;2024-01-15T05:36:57;38.70;;;17.80;;
60919;SDS011;59039;52.108;19.942;2024-01-15T05:39:22;36.00;;;17.20;;
60919;SDS011;59039;52.108;19.942;2024-01-15T05:41:48;34.10;;;16.60;;
60919;SDS011;59039;52.108;19.942;2024-01-15T05:44:13;34.30;;;17.20;;
60919;SDS011;59039;52.108;19.942;2024-01-15T05:46:38;33.10;;;17.50;;
60919;SDS011;59039;52.108;19.942;2024-01-15T05:49:03;37.00;;;18.40;;
60919;SDS011;59039;52.108;19.942;2024-01-15T05:51:28;37.60;;;17.80;;
60919;SDS011;59039;52.108;19.942;2024-01-15T05:53:54;35.80;;;17.40;;
60919;SDS011;59039;52.108;19.942;2024-01-15T05:56:19;35.40;;;15.80;;
60919;SDS011;59039;52.108;19.942;2024-01-15T05:58:44;29.70;;;17.00;;
60919;SDS011;59039;52.108;19.942;2024-01-15T06:01:09;35.80;;;17.40;;
60919;SDS011;59039;52.108;19.942;2024-01-15T06:03:35;34.30;;;16.90;;
60919;SDS011;59039;52.108;19.942;2024-01-15T06:06:00;33.80;;;15.90;;
60919;SDS011;59039;52.108;19.942;2024-01-15T06:08:25;35.50;;;16.30;;
60919;SDS011;59039;52.108;19.942;2024-01-15T06:10:50;37.00;;;15.70;;
60919;SDS011;59039;52.108;19.942;2024-01-15T06:13:15;32.50;;;16.40;;
60919;SDS011;59039;52.108;19.942;2024-01-15T06:15:41;32.30;;;16.10;;
60919;SDS011;59039;52.108;19.942;2024-01-15T06:18:06;33.20;;;14.90;;
60919;SDS011;59039;52.108;19.942;2024-01-15T06:20:31;34.00;;;15.70;;
60919;SDS011;59039;52.108;19.942;2024-01-15T06:22:56;34.20;;;17.50;;
60919;SDS011;59039;52.108;19.942;2024-01-15T06:25:21;30.40;;;14.80;;
60919;SDS011;59039;52.108;19.942;2024-01-15T06:27:47;35.30;;;16.50;;
60919;SDS011;59039;52.108;19.942;2024-01-15T06:30:12;29.20;;;15.60;;
60919;SDS011;59039;52.108;19.942;2024-01-15T06:32:38;33.90;;;16.20;;
60919;SDS011;59039;52.108;19.942;2024-01-15T06:35:03;37.60;;;17.10;;
60919;SDS011;59039;52.108;19.942;2024-01-15T06:37:28;39.80;;;17.70;;
60919;SDS011;59039;52.108;19.942;2024-01-15T06:39:54;38.20;;;17.60;;
60919;SDS011;59039;52.108;19.942;2024-01-15T06:42:19;33.70;;;16.20;;
60919;SDS011;59039;52.108;19.942;2024-01-15T06:44:44;34.90;;;15.80;;
60919;SDS011;59039;52.108;19.942;2024-01-15T06:47:09;35.20;;;17.70;;
60919;SDS011;59039;52.108;19.942;2024-01-15T06:49:34;32.40;;;16.60;;
60919;SDS011;59039;52.108;19.942;2024-01-15T06:52:00;30.90;;;15.20;;
60919;SDS011;59039;52.108;19.942;2024-01-15T06:54:25;32.60;;;16.00;;
60919;SDS011;59039;52.108;19.942;2024-01-15T06:56:50;34.50;;;16.00;;
60919;SDS011;59039;52.108;19.942;2024-01-15T06:59:15;40.10;;;16.30;;
60919;SDS011;59039;52.108;19.942;2024-01-15T07:01:40;35.10;;;15.50;;
60919;SDS011;59039;52.108;19.942;2024-01-15T07:04:06;27.60;;;13.30;;
60919;SDS011;59039;52.108;19.942;2024-01-15T07:06:31;32.60;;;16.10;;
60919;SDS011;59039;52.108;19.942;2024-01-15T07:08:56;30.40;;;15.50;;
60919;SDS011;59039;52.108;19.942;2024-01-15T07:11:21;34.10;;;15.70;;
60919;SDS011;59039;52.108;19.942;2024-01-15T07:13:47;29.20;;;13.80;;
60919;SDS011;59039;52.108;19.942;2024-01-15T07:16:12;30.30;;;14.70;;
60919;SDS011;59039;52.108;19.942;2024-01-15T07:18:37;32.30;;;15.10;;
60919;SDS011;59039;52.108;19.942;2024-01-15T07:21:03;31.80;;;15.70;;
60919;SDS011;59039;52.108;19.942;2024-01-15T07:23:28;35.80;;;17.30;;
60919;SDS011;59039;52.108;19.942;2024-01-15T07:25:53;30.90;;;15.80;;
60919;SDS011;59039;52.108;19.942;2024-01-15T07:28:19;37.10;;;18.00;;
60919;SDS011;59039;52.108;19.942;2024-01-15T07:30:44;38.20;;;17.30;;
60919;SDS011;59039;52.108;19.942;2024-01-15T07:33:09;37.30;;;17.20;;
60919;SDS011;59039;52.108;19.942;2024-01-15T07:35:34;32.20;;;16.70;;
60919;SDS011;59039;52.108;19.942;2024-01-15T07:38:00;30.90;;;15.50;;
60919;SDS011;59039;52.108;19.942;2024-01-15T07:40:25;35.60;;;17.50;;
60919;SDS011;59039;52.108;19.942;2024-01-15T07:42:50;35.00;;;17.30;;
60919;SDS011;59039;52.108;19.942;2024-01-15T07:45:16;38.00;;;17.50;;
60919;SDS011;59039;52.108;19.942;2024-01-15T07:47:41;36.30;;;18.60;;
60919;SDS011;59039;52.108;19.942;2024-01-15T07:50:07;39.30;;;19.30;;
60919;SDS011;59039;52.108;19.942;2024-01-15T07:52:32;40.80;;;19.00;;
60919;SDS011;59039;52.108;19.942;2024-01-15T07:54:57;39.40;;;17.00;;
60919;SDS011;59039;52.108;19.942;2024-01-15T07:57:23;35.30;;;16.20;;
60919;SDS011;59039;52.108;19.942;2024-01-15T07:59:48;32.80;;;15.80;;
60919;SDS011;59039;52.108;19.942;2024-01-15T08:02:13;33.00;;;15.70;;
60919;SDS011;59039;52.108;19.942;2024-01-15T08:04:39;34.30;;;17.00;;
60919;SDS011;59039;52.108;19.942;2024-01-15T08:07:04;38.00;;;18.90;;
60919;SDS011;59039;52.108;19.942;2024-01-15T08:09:30;36.40;;;17.90;;
60919;SDS011;59039;52.108;19.942;2024-01-15T08:11:55;36.30;;;17.20;;
60919;SDS011;59039;52.108;19.942;2024-01-15T08:14:20;33.00;;;16.10;;
60919;SDS011;59039;52.108;19.942;2024-01-15T08:16:45;33.90;;;16.80;;
60919;SDS011;59039;52.108;19.942;2024-01-15T08:19:10;35.80;;;17.50;;
60919;SDS011;59039;52.108;19.942;2024-01-15T08:21:36;36.40;;;17.10;;
60919;SDS011;59039;52.108;19.942;2024-01-15T08:24:01;32.30;;;15.50;;
60919;SDS011;59039;52.108;19.942;2024-01-15T08:26:27;32.30;;;16.70;;
60919;SDS011;59039;52.108;19.942;2024-01-15T08:28:53;31.60;;;15.80;;
60919;SDS011;59039;52.108;19.942;2024-01-15T08:31:18;29.50;;;14.40;;
60919;SDS011;59039;52.108;19.942;2024-01-15T08:33:43;35.30;;;15.70;;
60919;SDS011;59039;52.108;19.942;2024-01-15T08:36:09;39.10;;;17.40;;
60919;SDS011;59039;52.108;19.942;2024-01-15T08:38:35;28.40;;;14.50;;
60919;SDS011;59039;52.108;19.942;2024-01-15T08:41:00;34.30;;;15.90;;
60919;SDS011;59039;52.108;19.942;2024-01-15T08:43:25;31.30;;;14.90;;
60919;SDS011;59039;52.108;19.942;2024-01-15T08:45:51;30.30;;;13.10;;
60919;SDS011;59039;52.108;19.942;2024-01-15T08:48:16;25.10;;;12.50;;
60919;SDS011;59039;52.108;19.942;2024-01-15T08:50:42;25.40;;;12.10;;
60919;SDS011;59039;52.108;19.942;2024-01-15T08:53:07;32.30;;;13.00;;
60919;SDS011;59039;52.108;19.942;2024-01-15T08:55:32;29.10;;;11.50;;
60919;SDS011;59039;52.108;19.942;2024-01-15T08:57:57;36.40;;;14.10;;
60919;SDS011;59039;52.108;19.942;2024-01-15T09:00:23;27.50;;;12.60;;
60919;SDS011;59039;52.108;19.942;2024-01-15T09:02:48;24.90;;;11.70;;
60919;SDS011;59039;52.108;19.942;2024-01-15T09:05:13;29.10;;;13.40;;
60919;SDS011;59039;52.108;19.942;2024-01-15T09:07:38;34.40;;;13.00;;
60919;SDS011;59039;52.108;19.942;2024-01-15T09:10:04;24.30;;;11.00;;
60919;SDS011;59039;52.108;19.942;2024-01-15T09:12:29;32.80;;;12.60;;
60919;SDS011;59039;52.108;19.942;2024-01-15T09:14:54;41.30;;;15.50;;
60919;SDS011;59039;52.108;19.942;2024-01-15T09:17:20;34.70;;;14.60;;
60919;SDS011;59039;52.108;19.942;2024-01-15T09:19:46;45.60;;;16.90;;
60919;SDS011;59039;52.108;19.942;2024-01-15T09:22:12;35.80;;;14.60;;
60919;SDS011;59039;52.108;19.942;2024-01-15T09:24:39;31.90;;;14.50;;
60919;SDS011;59039;52.108;19.942;2024-01-15T09:27:05;31.40;;;13.80;;
60919;SDS011;59039;52.108;19.942;2024-01-15T09:29:31;32.30;;;13.80;;
60919;SDS011;59039;52.108;19.942;2024-01-15T09:31:56;27.60;;;13.10;;
60919;SDS011;59039;52.108;19.942;2024-01-15T09:34:21;31.60;;;14.00;;
60919;SDS011;59039;52.108;19.942;2024-01-15T09:36:46;28.70;;;12.50;;
60919;SDS011;59039;52.108;19.942;2024-01-15T09:39:11;37.20;;;13.80;;
60919;SDS011;59039;52.108;19.942;2024-01-15T09:41:37;30.80;;;14.20;;
60919;SDS011;59039;52.108;19.942;2024-01-15T09:44:03;36.60;;;14.40;;
60919;SDS011;59039;52.108;19.942;2024-01-15T09:46:28;30.30;;;13.20;;
60919;SDS011;59039;52.108;19.942;2024-01-15T09:48:54;30.60;;;14.10;;
60919;SDS011;59039;52.108;19.942;2024-01-15T09:51:19;30.80;;;14.20;;
60919;SDS011;59039;52.108;19.942;2024-01-15T09:53:45;36.60;;;15.30;;
60919;SDS011;59039;52.108;19.942;2024-01-15T09:56:12;60.80;;;19.40;;
60919;SDS011;59039;52.108;19.942;2024-01-15T09:58:37;94.50;;;31.60;;
60919;SDS011;59039;52.108;19.942;2024-01-15T10:01:03;88.50;;;28.20;;
60919;SDS011;59039;52.108;19.942;2024-01-15T10:03:29;67.00;;;20.50;;
60919;SDS011;59039;52.108;19.942;2024-01-15T10:05:54;54.50;;;19.80;;
60919;SDS011;59039;52.108;19.942;2024-01-15T10:08:20;58.40;;;21.10;;
60919;SDS011;59039;52.108;19.942;2024-01-15T10:10:48;49.10;;;18.10;;
60919;SDS011;59039;52.108;19.942;2024-01-15T10:13:13;40.90;;;16.40;;
60919;SDS011;59039;52.108;19.942;2024-01-15T10:15:40;42.00;;;15.90;;
60919;SDS011;59039;52.108;19.942;2024-01-15T10:18:05;37.30;;;16.70;;
60919;SDS011;59039;52.108;19.942;2024-01-15T10:20:34;39.70;;;16.00;;
60919;SDS011;59039;52.108;19.942;2024-01-15T10:22:59;35.60;;;13.50;;
60919;SDS011;59039;52.108;19.942;2024-01-15T10:25:24;31.30;;;12.90;;
60919;SDS011;59039;52.108;19.942;2024-01-15T10:27:58;29.60;;;14.50;;
60919;SDS011;59039;52.108;19.942;2024-01-15T10:30:27;32.60;;;14.00;;
60919;SDS011;59039;52.108;19.942;2024-01-15T10:32:59;28.20;;;14.00;;
60919;SDS011;59039;52.108;19.942;2024-01-15T10:35:26;31.30;;;13.10;;
60919;SDS011;59039;52.108;19.942;2024-01-15T10:37:52;38.70;;;14.00;;
60919;SDS011;59039;52.108;19.942;2024-01-15T10:40:18;42.40;;;15.50;;
60919;SDS011;59039;52.108;19.942;2024-01-15T10:42:44;49.40;;;16.30;;
60919;SDS011;59039;52.108;19.942;2024-01-15T10:45:09;37.40;;;13.20;;
60919;SDS011;59039;52.108;19.942;2024-01-15T10:47:35;34.40;;;12.40;;
60919;SDS011;59039;52.108;19.942;2024-01-15T10:50:01;38.90;;;14.00;;
60919;SDS011;59039;52.108;19.942;2024-01-15T10:52:27;35.60;;;13.00;;
60919;SDS011;59039;52.108;19.942;2024-01-15T10:54:53;48.50;;;16.20;;
60919;SDS011;59039;52.108;19.942;2024-01-15T10:57:18;47.00;;;17.50;;
60919;SDS011;59039;52.108;19.942;2024-01-15T10:59:46;50.10;;;17.90;;
60919;SDS011;59039;52.108;19.942;2024-01-15T11:02:12;53.00;;;17.50;;
60919;SDS011;59039;52.108;19.942;2024-01-15T11:04:39;47.60;;;17.40;;
60919;SDS011;59039;52.108;19.942;2024-01-15T11:07:04;46.30;;;15.70;;
60919;SDS011;59039;52.108;19.942;2024-01-15T11:09:30;50.20;;;18.10;;
60919;SDS011;59039;52.108;19.942;2024-01-15T11:12:09;43.00;;;16.70;;
60919;SDS011;59039;52.108;19.942;2024-01-15T11:14:42;42.40;;;17.10;;
60919;SDS011;59039;52.108;19.942;2024-01-15T11:17:10;40.20;;;17.50;;
60919;SDS011;59039;52.108;19.942;2024-01-15T11:19:46;38.60;;;16.20;;
60919;SDS011;59039;52.108;19.942;2024-01-15T11:24:55;36.10;;;15.00;;
60919;SDS011;59039;52.108;19.942;2024-01-15T11:30:11;33.90;;;14.90;;
60919;SDS011;59039;52.108;19.942;2024-01-15T11:32:37;34.30;;;15.50;;
60919;SDS011;59039;52.108;19.942;2024-01-15T11:35:03;41.90;;;16.90;;
60919;SDS011;59039;52.108;19.942;2024-01-15T11:37:29;34.30;;;14.60;;
60919;SDS011;59039;52.108;19.942;2024-01-15T11:40:17;33.20;;;14.80;;
60919;SDS011;59039;52.108;19.942;2024-01-15T11:42:44;43.50;;;16.00;;
60919;SDS011;59039;52.108;19.942;2024-01-15T11:45:10;36.30;;;14.40;;
60919;SDS011;59039;52.108;19.942;2024-01-15T11:48:21;37.40;;;15.50;;
60919;SDS011;59039;52.108;19.942;2024-01-15T11:50:39;43.90;;;15.80;;
60919;SDS011;59039;52.108;19.942;2024-01-15T11:53:07;38.50;;;13.60;;
60919;SDS011;59039;52.108;19.942;2024-01-15T11:55:53;36.80;;;13.90;;
60919;SDS011;59039;52.108;19.942;2024-01-15T11:58:23;24.90;;;12.70;;
60919;SDS011;59039;52.108;19.942;2024-01-15T12:00:49;32.70;;;14.00;;
60919;SDS011;59039;52.108;19.942;2024-01-15T12:03:16;39.10;;;16.20;;
60919;SDS011;59039;52.108;19.942;2024-01-15T12:05:42;42.20;;;16.50;;
60919;SDS011;59039;52.108;19.942;2024-01-15T12:08:07;26.70;;;13.10;;
60919;SDS011;59039;52.108;19.942;2024-01-15T12:10:33;28.00;;;13.40;;
60919;SDS011;59039;52.108;19.942;2024-01-15T12:12:59;28.90;;;12.70;;
60919;SDS011;59039;52.108;19.942;2024-01-15T12:15:29;42.50;;;18.80;;
60919;SDS011;59039;52.108;19.942;2024-01-15T12:17:57;30.60;;;12.30;;
60919;SDS011;59039;52.108;19.942;2024-01-15T12:20:24;27.70;;;12.30;;
60919;SDS011;59039;52.108;19.942;2024-01-15T12:22:50;28.70;;;12.40;;
60919;SDS011;59039;52.108;19.942;2024-01-15T12:25:15;29.80;;;13.20;;
60919;SDS011;59039;52.108;19.942;2024-01-15T12:27:40;31.10;;;14.70;;
60919;SDS011;59039;52.108;19.942;2024-01-15T12:30:06;26.60;;;12.60;;
60919;SDS011;59039;52.108;19.942;2024-01-15T12:32:32;31.30;;;13.10;;
60919;SDS011;59039;52.108;19.942;2024-01-15T12:34:57;34.80;;;13.70;;
60919;SDS011;59039;52.108;19.942;2024-01-15T12:37:22;29.90;;;14.70;;
60919;SDS011;59039;52.108;19.942;2024-01-15T12:39:49;30.40;;;13.60;;
60919;SDS011;59039;52.108;19.942;2024-01-15T12:42:14;30.20;;;14.00;;
60919;SDS011;59039;52.108;19.942;2024-01-15T12:44:39;26.00;;;12.60;;
60919;SDS011;59039;52.108;19.942;2024-01-15T12:47:05;31.00;;;14.50;;
60919;SDS011;59039;52.108;19.942;2024-01-15T12:49:31;37.80;;;17.30;;
60919;SDS011;59039;52.108;19.942;2024-01-15T12:51:56;33.40;;;16.70;;
60919;SDS011;59039;52.108;19.942;2024-01-15T12:54:23;35.70;;;17.80;;
60919;SDS011;59039;52.108;19.942;2024-01-15T12:56:48;27.90;;;14.60;;
60919;SDS011;59039;52.108;19.942;2024-01-15T12:59:13;29.30;;;16.10;;
60919;SDS011;59039;52.108;19.942;2024-01-15T13:01:39;36.00;;;16.80;;
60919;SDS011;59039;52.108;19.942;2024-01-15T13:04:04;45.30;;;21.30;;
60919;SDS011;59039;52.108;19.942;2024-01-15T13:06:29;41.30;;;21.20;;
60919;SDS011;59039;52.108;19.942;2024-01-15T13:08:54;32.10;;;15.00;;
60919;SDS011;59039;52.108;19.942;2024-01-15T13:11:20;66.60;;;25.00;;
60919;SDS011;59039;52.108;19.942;2024-01-15T13:13:45;98.40;;;32.90;;
60919;SDS011;59039;52.108;19.942;2024-01-15T13:16:10;118.90;;;35.50;;
60919;SDS011;59039;52.108;19.942;2024-01-15T13:18:35;138.80;;;41.20;;
60919;SDS011;59039;52.108;19.942;2024-01-15T13:21:00;126.00;;;40.10;;
60919;SDS011;59039;52.108;19.942;2024-01-15T13:23:26;113.70;;;31.20;;
60919;SDS011;59039;52.108;19.942;2024-01-15T13:25:51;88.30;;;26.20;;
60919;SDS011;59039;52.108;19.942;2024-01-15T13:28:16;66.90;;;25.90;;
60919;SDS011;59039;52.108;19.942;2024-01-15T13:30:41;62.00;;;25.90;;
60919;SDS011;59039;52.108;19.942;2024-01-15T13:33:06;61.80;;;24.70;;
60919;SDS011;59039;52.108;19.942;2024-01-15T13:35:32;55.70;;;22.40;;
60919;SDS011;59039;52.108;19.942;2024-01-15T13:37:58;56.10;;;21.90;;
60919;SDS011;59039;52.108;19.942;2024-01-15T13:40:23;61.50;;;22.20;;
60919;SDS011;59039;52.108;19.942;2024-01-15T13:42:48;47.00;;;18.50;;
60919;SDS011;59039;52.108;19.942;2024-01-15T13:45:13;65.10;;;22.80;;
60919;SDS011;59039;52.108;19.942;2024-01-15T13:47:39;45.50;;;18.60;;
60919;SDS011;59039;52.108;19.942;2024-01-15T13:50:06;40.70;;;18.20;;
60919;SDS011;59039;52.108;19.942;2024-01-15T13:52:32;34.80;;;15.50;;
60919;SDS011;59039;52.108;19.942;2024-01-15T13:54:57;33.50;;;16.60;;
60919;SDS011;59039;52.108;19.942;2024-01-15T13:57:22;41.20;;;18.00;;
60919;SDS011;59039;52.108;19.942;2024-01-15T13:59:47;33.60;;;14.10;;
60919;SDS011;59039;52.108;19.942;2024-01-15T14:02:13;36.00;;;15.60;;
60919;SDS011;59039;52.108;19.942;2024-01-15T14:04:38;30.00;;;13.60;;
60919;SDS011;59039;52.108;19.942;2024-01-15T14:07:04;27.30;;;13.10;;